Time;durP1;ratioP1;P1;durP2;ratioP2;P2;SDS_P1;SDS_P2;PMS_P1;PMS_P2;Temp;Humidity;BMP_temperature;BMP_pressure;BME280_temperature;BME280_humidity;BME280_pressure;Samples;Min_cycle;Max_cycle;Signal;HPM_P1;HPM_P2
2023/05/21 00:01:47;;;;;;;;;;;;;;;30.65;31.47;98627.72;5076220;28;20284;-87
2023/05/21 00:04:14;;;;;;;;;;;;;;;30.77;30.71;98624.00;5073825;28;19916;-87
2023/05/21 00:06:40;;;;;;;;;;;;;;;30.44;30.83;98624.94;5074838;28;19995;-86
2023/05/21 00:09:06;;;;;;;;;;;;;;;30.23;31.99;98623.69;5073445;28;19970;-87
2023/05/21 00:11:32;;;;;;;;;;;;;;;30.50;31.63;98623.88;5058918;28;19920;-87
2023/05/21 00:13:58;;;;;;;;;;;;;;;30.77;30.85;98629.69;5055874;28;19951;-87
2023/05/21 00:16:24;;;;;;;;;;;;;;;30.86;30.41;98626.06;5054246;28;19956;-87
2023/05/21 00:18:54;;;;;;;;;;;;;;;30.60;31.35;98619.81;5071284;28;19925;-87
2023/05/21 00:21:24;;;;;;;;;;;;;;;30.38;30.92;98624.78;5070656;28;20403;-87
2023/05/21 00:23:55;;;;;;;;;;;;;;;30.04;32.13;98624.84;5056482;28;20365;-88
2023/05/21 00:26:22;;;;;;;;;;;;;;;30.40;31.39;98622.25;5082427;28;19950;-87
2023/05/21 00:28:49;;;;;;;;;;;;;;;30.58;31.33;98622.34;5067839;28;19921;-87
2023/05/21 00:31:16;;;;;;;;;;;;;;;30.77;30.81;98621.16;5068926;28;19920;-87
2023/05/21 00:33:42;;;;;;;;;;;;;;;30.84;30.73;98624.97;5063983;28;19929;-87
2023/05/21 00:36:08;;;;;;;;;;;;;;;30.98;30.38;98628.03;5071779;28;19920;-87
2023/05/21 00:38:36;;;;;;;;;;;;;;;30.91;30.19;98624.69;5065908;28;19939;-87
2023/05/21 00:41:02;;;;;;;;;;;;;;;30.78;30.61;98617.06;5060018;28;19936;-87
2023/05/21 00:43:28;;;;;;;;;;;;;;;30.52;30.62;98615.72;5065915;28;20011;-87
2023/05/21 00:45:55;;;;;;;;;;;;;;;30.32;31.18;98626.59;5074566;28;19962;-87
2023/05/21 00:48:22;;;;;;;;;;;;;;;30.11;31.04;98618.91;5094392;28;19975;-86
2023/05/21 00:50:50;;;;;;;;;;;;;;;30.08;31.44;98620.63;5081748;28;21345;-87
2023/05/21 00:53:18;;;;;;;;;;;;;;;29.97;31.36;98613.78;5068724;28;19921;-87
2023/05/21 00:55:44;;;;;;;;;;;;;;;29.86;31.54;98610.56;5078209;28;20023;-86
2023/05/21 00:58:10;;;;;;;;;;;;;;;29.76;31.93;98618.19;5074284;28;20008;-87
2023/05/21 01:00:39;;;;;;;;;;;;;;;29.99;31.83;98616.97;5071763;28;19970;-87
2023/05/21 01:03:05;;;;;;;;;;;;;;;30.11;31.63;98615.31;5078062;28;20391;-87
2023/05/21 01:05:31;;;;;;;;;;;;;;;30.00;31.62;98618.53;5074861;28;20007;-86
2023/05/21 01:07:58;;;;;;;;;;;;;;;29.86;31.94;98608.53;5075031;28;19931;-87
2023/05/21 01:10:24;;;;;;;;;;;;;;;30.06;31.25;98602.50;5063986;28;19920;-87
2023/05/21 01:12:51;;;;;;;;;;;;;;;29.76;31.09;98609.69;5062875;28;19974;-87
2023/05/21 01:15:17;;;;;;;;;;;;;;;29.20;32.40;98612.47;5074383;28;19927;-87
2023/05/21 01:17:47;;;;;;;;;;;;;;;29.31;32.13;98612.91;5071879;28;19916;-87
2023/05/21 01:20:18;;;;;;;;;;;;;;;29.40;32.12;98613.00;5069756;28;19924;-87
2023/05/21 01:22:54;;;;;;;;;;;;;;;29.24;32.43;98595.41;5073873;28;20077;-87
2023/05/21 01:25:22;;;;;;;;;;;;;;;28.85;33.04;98599.50;5073007;28;20011;-87
2023/05/21 01:27:48;;;;;;;;;;;;;;;28.74;33.53;98597.03;5074471;28;20367;-87
2023/05/21 01:30:15;;;;;;;;;;;;;;;28.44;34.17;98602.44;5072774;28;19927;-87
2023/05/21 01:32:46;;;;;;;;;;;;;;;28.50;34.13;98600.63;5065911;28;19925;-87
2023/05/21 01:35:16;;;;;;;;;;;;;;;28.74;33.71;98599.06;5066502;28;19940;-87
2023/05/21 01:37:49;;;;;;;;;;;;;;;28.90;33.86;98587.63;5056678;28;20292;-87
2023/05/21 01:40:29;;;;;;;;;;;;;;;29.04;33.42;98587.16;5059947;28;20368;-87
2023/05/21 01:42:56;;;;;;;;;;;;;;;29.42;32.69;98584.25;5058800;28;20358;-87
2023/05/21 01:45:23;;;;;;;;;;;;;;;29.73;31.81;98587.16;5065451;28;19920;-87
2023/05/21 01:47:50;;;;;;;;;;;;;;;29.91;31.98;98579.63;5071727;28;20364;-87
2023/05/21 01:50:17;;;;;;;;;;;;;;;30.18;31.56;98578.22;5067715;28;19952;-87
2023/05/21 01:52:53;;;;;;;;;;;;;;;30.35;31.40;98574.69;5077881;28;19916;-87
2023/05/21 01:55:23;;;;;;;;;;;;;;;30.39;31.18;98575.34;5065339;28;19920;-87
2023/05/21 01:57:51;;;;;;;;;;;;;;;30.44;30.60;98576.78;5074916;28;20411;-87
2023/05/21 02:00:17;;;;;;;;;;;;;;;30.45;30.86;98579.16;5070567;28;19921;-87
2023/05/21 02:02:43;;;;;;;;;;;;;;;30.12;30.99;98577.22;5068469;28;20013;-87
2023/05/21 02:05:09;;;;;;;;;;;;;;;29.82;31.20;98578.75;5070052;28;19926;-87
2023/05/21 02:07:36;;;;;;;;;;;;;;;29.58;31.57;98569.13;5076947;28;19921;-87
2023/05/21 02:10:02;;;;;;;;;;;;;;;29.02;32.27;98575.50;5065055;28;20003;-87
2023/05/21 02:12:28;;;;;;;;;;;;;;;28.47;33.49;98562.00;5075937;28;19920;-87
2023/05/21 02:14:55;;;;;;;;;;;;;;;28.37;33.52;98565.94;5071324;28;19917;-87
2023/05/21 02:17:23;;;;;;;;;;;;;;;28.45;33.47;98567.31;5070602;28;19916;-87
2023/05/21 02:19:49;;;;;;;;;;;;;;;28.60;33.10;98568.44;5076681;28;20072;-87
2023/05/21 02:22:15;;;;;;;;;;;;;;;28.54;33.01;98567.41;5073399;28;20371;-86
2023/05/21 02:24:41;;;;;;;;;;;;;;;29.02;32.10;98563.41;5053527;28;19970;-87
2023/05/21 02:27:09;;;;;;;;;;;;;;;28.91;32.56;98568.63;5063396;28;19966;-87
2023/05/21 02:29:35;;;;;;;;;;;;;;;29.02;32.19;98569.06;5073448;28;19946;-87
2023/05/21 02:32:01;;;;;;;;;;;;;;;29.31;31.78;98567.63;5076811;28;20406;-86
2023/05/21 02:34:31;;;;;;;;;;;;;;;29.52;31.41;98566.09;5076246;28;19920;-87
2023/05/21 02:36:57;;;;;;;;;;;;;;;29.57;30.94;98564.72;5073949;28;19959;-87
2023/05/21 02:39:23;;;;;;;;;;;;;;;29.36;31.30;98561.41;5069935;28;20003;-87
2023/05/21 02:41:49;;;;;;;;;;;;;;;29.56;30.73;98561.09;5074895;28;19963;-87
2023/05/21 02:44:17;;;;;;;;;;;;;;;29.51;30.70;98560.88;5072381;28;20392;-87
2023/05/21 02:46:43;;;;;;;;;;;;;;;29.40;31.30;98564.09;5071696;28;19927;-87
2023/05/21 02:49:09;;;;;;;;;;;;;;;29.42;30.95;98570.09;5056794;28;20287;-87
2023/05/21 02:51:35;;;;;;;;;;;;;;;29.52;30.51;98562.47;5064730;28;19931;-87
2023/05/21 02:54:02;;;;;;;;;;;;;;;29.55;31.10;98559.50;5081076;28;19924;-87
2023/05/21 02:56:28;;;;;;;;;;;;;;;29.47;30.91;98561.03;5095297;28;20042;-87
2023/05/21 02:58:54;;;;;;;;;;;;;;;29.55;30.31;98567.19;5094179;28;19964;-87
2023/05/21 03:01:20;;;;;;;;;;;;;;;29.52;30.35;98568.13;5065418;28;20397;-87
2023/05/21 03:03:46;;;;;;;;;;;;;;;29.34;30.35;98569.56;5086096;28;20276;-87
2023/05/21 03:06:13;;;;;;;;;;;;;;;29.26;30.59;98573.09;5074487;28;19923;-87
2023/05/21 03:08:39;;;;;;;;;;;;;;;29.32;30.55;98565.59;5076556;28;19932;-87
2023/05/21 03:11:05;;;;;;;;;;;;;;;29.36;30.31;98569.88;5069305;28;19921;-87
2023/05/21 03:13:31;;;;;;;;;;;;;;;29.42;30.39;98573.72;5077912;28;19924;-87
2023/05/21 03:15:57;;;;;;;;;;;;;;;29.52;30.24;98568.13;5068882;28;19970;-88
2023/05/21 03:18:23;;;;;;;;;;;;;;;29.66;29.87;98564.78;5044806;28;19920;-88
2023/05/21 03:20:49;;;;;;;;;;;;;;;29.54;30.45;98563.59;5073076;28;20001;-87
2023/05/21 03:23:15;;;;;;;;;;;;;;;29.57;30.31;98568.31;5090046;28;19917;-87
2023/05/21 03:25:41;;;;;;;;;;;;;;;29.59;29.54;98563.00;5077096;28;20011;-87
2023/05/21 03:28:08;;;;;;;;;;;;;;;29.34;30.35;98566.72;5066247;28;20000;-87
2023/05/21 03:30:35;;;;;;;;;;;;;;;29.36;29.72;98558.56;5070630;28;19920;-87
2023/05/21 03:33:02;;;;;;;;;;;;;;;29.04;30.45;98560.91;5076762;28;20537;-87
2023/05/21 03:35:28;;;;;;;;;;;;;;;28.95;31.07;98558.00;5066235;28;19923;-87
2023/05/21 03:37:54;;;;;;;;;;;;;;;29.22;31.02;98559.06;5058586;28;20317;-87
2023/05/21 03:40:20;;;;;;;;;;;;;;;29.69;30.85;98561.81;5076434;28;19920;-87
2023/05/21 03:42:47;;;;;;;;;;;;;;;30.09;30.55;98553.44;5075928;28;20034;-87
2023/05/21 03:45:13;;;;;;;;;;;;;;;30.41;29.75;98555.06;5071413;28;19920;-88
2023/05/21 03:47:40;;;;;;;;;;;;;;;30.58;29.97;98562.81;5074876;28;19966;-88
2023/05/21 03:50:08;;;;;;;;;;;;;;;30.96;30.10;98561.69;5067910;28;19925;-88
2023/05/21 03:52:34;;;;;;;;;;;;;;;31.21;28.98;98565.03;5062895;28;19967;-88
2023/05/21 03:55:00;;;;;;;;;;;;;;;30.91;30.68;98559.47;5086351;28;19927;-88
2023/05/21 03:57:26;;;;;;;;;;;;;;;31.01;30.46;98559.03;5087637;28;19916;-88
2023/05/21 03:59:52;;;;;;;;;;;;;;;31.12;31.64;98553.69;5073930;28;19971;-88
2023/05/21 04:02:20;;;;;;;;;;;;;;;31.54;31.55;98559.56;5087096;28;20368;-88
2023/05/21 04:04:46;;;;;;;;;;;;;;;31.76;30.74;98560.19;5081293;28;20367;-88
2023/05/21 04:07:14;;;;;;;;;;;;;;;31.91;30.16;98563.94;5073478;28;20021;-88
2023/05/21 04:09:40;;;;;;;;;;;;;;;31.76;30.23;98562.22;5062196;28;19921;-86
2023/05/21 04:12:07;;;;;;;;;;;;;;;31.66;30.04;98557.81;5060805;28;20369;-86
2023/05/21 04:14:33;;;;;;;;;;;;;;;31.67;31.39;98560.16;5062494;28;19963;-89
2023/05/21 04:16:59;;;;;;;;;;;;;;;31.88;30.76;98558.44;5065953;28;19969;-89
2023/05/21 04:19:25;;;;;;;;;;;;;;;31.93;30.49;98557.75;5073659;28;19929;-87
2023/05/21 04:21:51;;;;;;;;;;;;;;;31.82;30.60;98558.28;5074001;28;19928;-89
2023/05/21 04:24:17;;;;;;;;;;;;;;;31.77;31.11;98558.91;5082876;28;19927;-88
2023/05/21 04:26:43;;;;;;;;;;;;;;;31.67;30.74;98560.16;5074952;28;19920;-89
2023/05/21 04:29:10;;;;;;;;;;;;;;;31.64;31.48;98561.13;5083328;28;19921;-89
2023/05/21 04:31:36;;;;;;;;;;;;;;;31.61;31.53;98559.25;5059442;28;20285;-90
2023/05/21 04:34:03;;;;;;;;;;;;;;;31.68;32.01;98553.25;5077603;28;19928;-87
2023/05/21 04:36:29;;;;;;;;;;;;;;;31.75;32.21;98555.75;5076897;28;20272;-87
2023/05/21 04:38:55;;;;;;;;;;;;;;;32.07;31.39;98557.91;5075115;28;19920;-86
2023/05/21 04:41:21;;;;;;;;;;;;;;;32.13;31.55;98554.44;5062008;28;20414;-87
2023/05/21 04:43:47;;;;;;;;;;;;;;;32.15;31.58;98555.53;5051626;28;19928;-87
2023/05/21 04:46:13;;;;;;;;;;;;;;;32.26;32.70;98550.13;5077796;28;19925;-87
2023/05/21 04:48:39;;;;;;;;;;;;;;;32.44;31.81;98555.72;5061672;28;19921;-87
2023/05/21 04:51:05;;;;;;;;;;;;;;;32.71;33.71;98552.81;5066486;28;20319;-87
2023/05/21 04:53:32;;;;;;;;;;;;;;;33.15;31.49;98561.56;5070426;28;19959;-87
2023/05/21 04:55:58;;;;;;;;;;;;;;;33.29;31.83;98552.28;5075652;28;19924;-87
2023/05/21 04:58:25;;;;;;;;;;;;;;;33.42;31.45;98561.34;5086715;28;20006;-87
2023/05/21 05:00:52;;;;;;;;;;;;;;;33.36;32.47;98566.16;5074960;28;19928;-87
2023/05/21 05:03:18;;;;;;;;;;;;;;;33.53;30.73;98557.97;5079128;28;19920;-87
2023/05/21 05:05:44;;;;;;;;;;;;;;;33.29;32.53;98562.88;5078795;28;19917;-88
2023/05/21 05:08:11;;;;;;;;;;;;;;;33.55;31.80;98558.28;5077770;28;20287;-88
2023/05/21 05:10:37;;;;;;;;;;;;;;;33.83;34.38;98550.25;5081246;28;19963;-87
2023/05/21 05:13:03;;;;;;;;;;;;;;;34.06;32.97;98547.34;5072745;28;19959;-87
2023/05/21 05:15:29;;;;;;;;;;;;;;;34.20;32.56;98554.31;5073148;28;20395;-88
2023/05/21 05:17:55;;;;;;;;;;;;;;;34.19;32.23;98555.63;5073414;28;19924;-87
2023/05/21 05:20:21;;;;;;;;;;;;;;;34.21;32.10;98555.91;5073503;28;19979;-88
2023/05/21 05:22:47;;;;;;;;;;;;;;;33.47;30.18;98559.88;5072099;28;19921;-88
2023/05/21 05:25:13;;;;;;;;;;;;;;;32.91;31.96;98566.44;5072554;28;19917;-88
2023/05/21 05:27:39;;;;;;;;;;;;;;;32.83;31.44;98558.75;5072642;28;19924;-87
2023/05/21 05:30:06;;;;;;;;;;;;;;;32.46;33.32;98564.59;5071706;28;20017;-88
2023/05/21 05:32:32;;;;;;;;;;;;;;;33.06;32.90;98561.63;5054956;28;20311;-88
2023/05/21 05:34:58;;;;;;;;;;;;;;;33.28;31.50;98558.47;5072678;28;19920;-87
2023/05/21 05:37:24;;;;;;;;;;;;;;;32.51;32.11;98555.41;5068850;28;19916;-87
2023/05/21 05:39:50;;;;;;;;;;;;;;;32.79;32.32;98556.09;5067141;28;19927;-87
2023/05/21 05:42:16;;;;;;;;;;;;;;;32.63;32.45;98562.16;5071157;28;19924;-87
2023/05/21 05:44:42;;;;;;;;;;;;;;;33.06;35.64;98560.84;5044577;28;20090;-87
2023/05/21 05:47:09;;;;;;;;;;;;;;;32.96;31.31;98560.06;5068058;28;20372;-87
2023/05/21 05:49:35;;;;;;;;;;;;;;;33.31;32.87;98555.44;5067944;28;19928;-87
2023/05/21 05:52:02;;;;;;;;;;;;;;;33.77;33.20;98566.47;5061563;28;19928;-87
2023/05/21 05:54:28;;;;;;;;;;;;;;;32.56;31.58;98556.81;5059837;28;19917;-87
2023/05/21 05:56:54;;;;;;;;;;;;;;;31.58;32.63;98557.34;5059535;28;19967;-87
2023/05/21 05:59:20;;;;;;;;;;;;;;;31.59;33.76;98552.47;5073132;28;20269;-87
2023/05/21 06:01:46;;;;;;;;;;;;;;;31.39;33.67;98550.09;5065805;28;19920;-88
2023/05/21 06:04:12;;;;;;;;;;;;;;;30.99;33.61;98549.41;5054385;28;19944;-87
2023/05/21 06:06:38;;;;;;;;;;;;;;;30.94;33.53;98562.16;5068029;28;20372;-87
2023/05/21 06:09:04;;;;;;;;;;;;;;;31.48;33.15;98552.94;5084416;28;19928;-87
2023/05/21 06:11:30;;;;;;;;;;;;;;;32.73;31.49;98552.31;5072409;28;19927;-87
2023/05/21 06:13:59;;;;;;;;;;;;;;;31.67;32.93;98551.66;5063334;28;20265;-86
2023/05/21 06:16:25;;;;;;;;;;;;;;;32.19;31.70;98550.47;5072374;28;20097;-87
2023/05/21 06:18:51;;;;;;;;;;;;;;;31.23;34.17;98541.84;5067319;28;20385;-87
2023/05/21 06:21:17;;;;;;;;;;;;;;;31.37;32.08;98544.06;5073855;28;19924;-87
2023/05/21 06:23:43;;;;;;;;;;;;;;;31.20;34.38;98542.81;5070450;28;19956;-86
2023/05/21 06:26:09;;;;;;;;;;;;;;;31.73;32.08;98544.09;5062864;28;19913;-87
2023/05/21 06:28:35;;;;;;;;;;;;;;;31.71;33.29;98538.09;5068472;28;19966;-87
2023/05/21 06:31:02;;;;;;;;;;;;;;;32.28;32.59;98532.63;5063601;28;19940;-87
2023/05/21 06:33:28;;;;;;;;;;;;;;;33.08;31.30;98539.16;5058682;28;19916;-87
2023/05/21 06:35:54;;;;;;;;;;;;;;;33.02;32.03;98534.63;5067424;28;19975;-87
2023/05/21 06:38:20;;;;;;;;;;;;;;;31.73;33.80;98532.72;5065174;28;20046;-87
2023/05/21 06:40:46;;;;;;;;;;;;;;;30.66;36.43;98529.31;5071991;28;20011;-87
2023/05/21 06:43:13;;;;;;;;;;;;;;;31.42;32.63;98532.09;5062158;28;19917;-87
2023/05/21 06:45:39;;;;;;;;;;;;;;;32.16;31.71;98528.69;5073981;28;19916;-88
2023/05/21 06:48:05;;;;;;;;;;;;;;;31.86;33.69;98526.84;5055766;28;20412;-87
2023/05/21 06:50:31;;;;;;;;;;;;;;;31.95;33.77;98529.69;5066563;28;19924;-87
2023/05/21 06:52:57;;;;;;;;;;;;;;;31.45;34.35;98530.38;5063513;28;20404;-87
2023/05/21 06:55:23;;;;;;;;;;;;;;;30.19;35.58;98531.63;5067305;28;19920;-87
2023/05/21 06:57:49;;;;;;;;;;;;;;;30.66;36.79;98530.09;5069659;28;19982;-87
2023/05/21 07:00:15;;;;;;;;;;;;;;;30.67;35.99;98528.81;5063340;28;19983;-85
2023/05/21 07:02:41;;;;;;;;;;;;;;;29.39;38.14;98528.56;5068401;28;19924;-90
2023/05/21 07:05:07;;;;;;;;;;;;;;;29.33;36.66;98524.75;5067532;28;19921;-89
2023/05/21 07:07:34;;;;;;;;;;;;;;;30.77;34.63;98521.94;5067836;28;19920;-89
2023/05/21 07:10:00;;;;;;;;;;;;;;;30.74;34.90;98522.84;5068342;28;19926;-89
2023/05/21 07:12:26;;;;;;;;;;;;;;;30.17;40.60;98517.94;5074765;28;20019;-90
2023/05/21 07:14:52;;;;;;;;;;;;;;;29.51;38.97;98516.41;5083414;28;20015;-88
2023/05/21 07:17:18;;;;;;;;;;;;;;;29.88;39.70;98515.41;5053565;28;19920;-88
2023/05/21 07:19:44;;;;;;;;;;;;;;;30.56;35.87;98522.03;5068592;28;20030;-88
2023/05/21 07:22:11;;;;;;;;;;;;;;;29.25;42.36;98509.28;5054365;28;19929;-89
2023/05/21 07:24:37;;;;;;;;;;;;;;;29.61;37.67;98512.41;5066540;28;19920;-87
2023/05/21 07:27:05;;;;;;;;;;;;;;;29.74;37.54;98523.63;5051908;28;20341;-88
2023/05/21 07:29:34;;;;;;;;;;;;;;;30.36;36.58;98513.16;5076370;28;20459;-87
2023/05/21 07:32:00;;;;;;;;;;;;;;;30.46;36.27;98517.56;5067960;28;19925;-88
2023/05/21 07:34:26;;;;;;;;;;;;;;;31.77;32.49;98510.63;5067400;28;20001;-87
2023/05/21 07:36:52;;;;;;;;;;;;;;;31.84;33.27;98510.28;5074719;28;20376;-88
2023/05/21 07:39:18;;;;;;;;;;;;;;;31.13;37.10;98509.88;5080828;28;19926;-88
2023/05/21 07:41:44;;;;;;;;;;;;;;;30.50;39.22;98507.66;5074303;28;20010;-89
2023/05/21 07:44:10;;;;;;;;;;;;;;;30.31;39.14;98511.69;5066824;28;19925;-88
2023/05/21 07:46:36;;;;;;;;;;;;;;;30.63;40.13;98510.38;5070480;28;19920;-89
2023/05/21 07:49:02;;;;;;;;;;;;;;;30.62;37.01;98509.59;5072729;28;19943;-89
2023/05/21 07:51:28;;;;;;;;;;;;;;;31.34;35.39;98502.47;5072336;28;19920;-89
2023/05/21 07:53:55;;;;;;;;;;;;;;;30.91;38.76;98505.59;5046916;28;20451;-86
2023/05/21 07:56:21;;;;;;;;;;;;;;;31.65;34.44;98505.91;5068432;28;19920;-85
2023/05/21 07:58:47;;;;;;;;;;;;;;;32.56;33.08;98509.28;5069378;28;19920;-89
2023/05/21 08:01:13;;;;;;;;;;;;;;;32.80;32.29;98512.13;5055320;28;19916;-89
2023/05/21 08:03:39;;;;;;;;;;;;;;;32.96;32.90;98510.91;5091528;28;19951;-89
2023/05/21 08:06:05;;;;;;;;;;;;;;;31.35;38.87;98506.88;5084482;28;20030;-91
2023/05/21 08:08:31;;;;;;;;;;;;;;;32.28;33.80;98507.81;5073586;28;20367;-87
2023/05/21 08:10:57;;;;;;;;;;;;;;;32.25;32.26;98503.09;5063983;28;20399;-88
2023/05/21 08:13:24;;;;;;;;;;;;;;;32.57;30.93;98507.22;5060752;28;19971;-86
2023/05/21 08:15:51;;;;;;;;;;;;;;;32.41;37.38;98501.91;5070827;28;19920;-85
2023/05/21 08:18:17;;;;;;;;;;;;;;;31.70;33.94;98501.63;5069819;28;19975;-90
2023/05/21 08:20:43;;;;;;;;;;;;;;;32.59;32.05;98505.47;5064036;28;19920;-90
2023/05/21 08:23:09;;;;;;;;;;;;;;;31.42;31.78;98501.69;5061589;28;19928;-89
2023/05/21 08:25:35;;;;;;;;;;;;;;;31.77;31.70;98498.47;5069528;28;19982;-89
2023/05/21 08:28:01;;;;;;;;;;;;;;;31.59;37.98;98493.63;5070457;28;20038;-90
2023/05/21 08:30:27;;;;;;;;;;;;;;;30.45;39.93;98504.69;5067946;28;19920;-91
2023/05/21 08:32:53;;;;;;;;;;;;;;;31.21;33.94;98490.47;5071940;28;19947;-90
2023/05/21 08:35:20;;;;;;;;;;;;;;;31.84;35.79;98498.13;5072226;28;19921;-89
2023/05/21 08:37:46;;;;;;;;;;;;;;;31.40;41.24;98494.88;5075382;28;19923;-90
2023/05/21 08:40:12;;;;;;;;;;;;;;;30.33;40.82;98497.88;5070765;28;19925;-91
2023/05/21 08:42:41;;;;;;;;;;;;;;;31.93;32.22;98486.75;5067807;28;19928;-89
2023/05/21 08:45:08;;;;;;;;;;;;;;;30.84;40.05;98492.47;5070788;28;19962;-90
2023/05/21 08:47:34;;;;;;;;;;;;;;;31.33;31.49;98496.00;5066499;28;20414;-88
2023/05/21 08:50:03;;;;;;;;;;;;;;;31.35;34.80;98487.78;5075801;28;19994;-88
2023/05/21 08:52:30;;;;;;;;;;;;;;;32.27;32.88;98491.25;5067918;28;19920;-88
2023/05/21 08:54:56;;;;;;;;;;;;;;;31.80;34.02;98484.13;5068476;28;19991;-90
2023/05/21 08:57:24;;;;;;;;;;;;;;;31.56;37.32;98485.25;5072734;28;19921;-89
2023/05/21 08:59:50;;;;;;;;;;;;;;;32.00;33.19;98490.06;5062483;28;19920;-89
2023/05/21 09:02:18;;;;;;;;;;;;;;;32.28;32.44;98487.13;5076883;28;19920;-89
2023/05/21 09:04:48;;;;;;;;;;;;;;;30.70;44.92;98499.53;5076432;28;19920;-90
2023/05/21 09:07:14;;;;;;;;;;;;;;;31.16;31.02;98482.59;5068543;28;19956;-88
2023/05/21 09:09:48;;;;;;;;;;;;;;;31.40;38.01;98487.16;5065265;28;19920;-89
2023/05/21 09:12:14;;;;;;;;;;;;;;;31.15;34.95;98492.38;5065025;28;19921;-88
2023/05/21 09:14:41;;;;;;;;;;;;;;;30.62;35.40;98489.75;5046036;28;19931;-88
2023/05/21 09:17:07;;;;;;;;;;;;;;;32.55;28.21;98487.03;5061418;28;20284;-88
2023/05/21 09:19:33;;;;;;;;;;;;;;;32.55;28.05;98478.50;5047916;28;20306;-88
2023/05/21 09:22:02;;;;;;;;;;;;;;;32.52;31.80;98487.97;5063271;28;19968;-89
2023/05/21 09:24:32;;;;;;;;;;;;;;;31.90;39.29;98482.81;5061286;28;20004;-83
2023/05/21 09:26:58;;;;;;;;;;;;;;;32.08;34.95;98482.00;5066020;28;20303;-84
2023/05/21 09:29:25;;;;;;;;;;;;;;;32.30;32.98;98481.75;5072800;28;19920;-85
2023/05/21 09:31:53;;;;;;;;;;;;;;;32.60;33.54;98480.69;5070210;28;19924;-83
2023/05/21 09:34:19;;;;;;;;;;;;;;;33.28;28.03;98464.53;5053234;28;19925;-84
2023/05/21 09:36:47;;;;;;;;;;;;;;;32.84;27.88;98464.38;5057538;28;19928;-81
2023/05/21 09:39:26;;;;;;;;;;;;;;;33.27;34.53;98462.97;5062993;28;19956;-82
2023/05/21 09:41:52;;;;;;;;;;;;;;;32.72;29.13;98473.97;5065313;28;20368;-82
2023/05/21 09:44:18;;;;;;;;;;;;;;;34.19;29.72;98461.53;5072441;28;19916;-83
2023/05/21 09:46:44;;;;;;;;;;;;;;;34.40;29.56;98457.44;5070583;28;19928;-82
2023/05/21 09:49:21;;;;;;;;;;;;;;;33.78;29.02;98468.31;5078853;28;20023;-82
2023/05/21 09:51:47;;;;;;;;;;;;;;;33.68;28.39;98458.31;5074678;28;19917;-84
2023/05/21 09:54:13;;;;;;;;;;;;;;;32.50;30.19;98460.03;5068963;28;19921;-83
2023/05/21 09:56:39;;;;;;;;;;;;;;;32.03;37.72;98466.41;5067713;28;19923;-82
2023/05/21 09:59:06;;;;;;;;;;;;;;;31.69;33.45;98468.84;5064071;28;19921;-82
2023/05/21 10:01:36;;;;;;;;;;;;;;;33.10;27.56;98450.44;5066448;28;20022;-81
2023/05/21 10:04:05;;;;;;;;;;;;;;;33.27;30.61;98457.28;5050041;28;19933;-81
2023/05/21 10:06:34;;;;;;;;;;;;;;;32.39;31.22;98456.13;5056351;28;20475;-83
2023/05/21 10:09:01;;;;;;;;;;;;;;;32.19;31.88;98458.75;5058794;28;19924;-81
2023/05/21 10:11:29;;;;;;;;;;;;;;;31.81;31.86;98462.19;5066166;28;20273;-83
2023/05/21 10:13:56;;;;;;;;;;;;;;;31.54;33.53;98456.56;5067217;28;19935;-84
2023/05/21 10:16:23;;;;;;;;;;;;;;;31.62;31.35;98452.94;5070217;28;19927;-86
2023/05/21 10:18:49;;;;;;;;;;;;;;;30.73;36.65;98443.97;5078428;28;19931;-84
2023/05/21 10:21:15;;;;;;;;;;;;;;;30.40;38.15;98448.63;5067304;28;19927;-82
2023/05/21 10:23:42;;;;;;;;;;;;;;;30.81;36.23;98448.03;5057180;28;19932;-84
2023/05/21 10:26:09;;;;;;;;;;;;;;;31.31;36.03;98444.59;5061140;28;19916;-87
2023/05/21 10:28:35;;;;;;;;;;;;;;;30.90;36.51;98431.06;5066583;28;19924;-87
2023/05/21 10:31:02;;;;;;;;;;;;;;;30.48;37.63;98439.34;5074057;28;20046;-88
2023/05/21 10:33:28;;;;;;;;;;;;;;;30.75;34.78;98438.59;5080425;28;19920;-88
2023/05/21 10:35:57;;;;;;;;;;;;;;;31.03;39.94;98445.09;5081894;28;19946;-89
2023/05/21 10:38:23;;;;;;;;;;;;;;;32.48;35.54;98442.66;5053139;28;19925;-85
2023/05/21 10:40:51;;;;;;;;;;;;;;;32.41;39.61;98439.38;5064285;28;20009;-86
2023/05/21 10:43:37;;;;;;;;;;;;;;;32.69;34.10;98452.19;5088408;28;19920;-85
2023/05/21 10:46:26;;;;;;;;;;;;;;;32.77;28.88;98447.69;5067575;28;20391;-86
2023/05/21 10:49:05;;;;;;;;;;;;;;;32.12;39.76;98439.19;5049980;28;19929;-86
2023/05/21 10:51:49;;;;;;;;;;;;;;;31.51;40.48;98432.00;5066297;28;19920;-86
2023/05/21 10:54:32;;;;;;;;;;;;;;;31.37;33.82;98430.53;5071704;28;19924;-86
2023/05/21 10:56:58;;;;;;;;;;;;;;;31.07;33.73;98429.50;5075202;28;19924;-86
2023/05/21 10:59:41;;;;;;;;;;;;;;;30.56;42.95;98432.13;5078562;28;19925;-86
2023/05/21 11:02:08;;;;;;;;;;;;;;;31.35;33.14;98433.88;5071567;28;20321;-87
2023/05/21 11:04:38;;;;;;;;;;;;;;;32.23;31.29;98428.13;5075636;28;20346;-88
2023/05/21 11:07:04;;;;;;;;;;;;;;;32.69;35.55;98424.53;5069274;28;19927;-87
2023/05/21 11:09:30;;;;;;;;;;;;;;;31.54;38.21;98431.03;5085875;28;20437;-87
2023/05/21 11:11:57;;;;;;;;;;;;;;;31.41;30.72;98426.28;5068417;28;19924;-85
2023/05/21 11:14:30;;;;;;;;;;;;;;;31.56;31.59;98437.00;5076213;28;19920;-87
2023/05/21 11:16:57;;;;;;;;;;;;;;;32.31;31.34;98424.44;5073842;28;20019;-86
2023/05/21 11:19:31;;;;;;;;;;;;;;;32.18;33.68;98438.09;5072892;28;20355;-85
2023/05/21 11:21:57;;;;;;;;;;;;;;;32.20;32.54;98423.38;5062137;28;19943;-85
2023/05/21 11:24:24;;;;;;;;;;;;;;;32.06;32.07;98434.19;5062085;28;20280;-86
2023/05/21 11:26:51;;;;;;;;;;;;;;;32.68;37.81;98433.53;5067854;28;19927;-87
2023/05/21 11:29:17;;;;;;;;;;;;;;;33.62;31.99;98431.78;5065315;28;19921;-88
2023/05/21 11:31:47;;;;;;;;;;;;;;;33.39;29.98;98433.44;5057969;28;20363;-87
2023/05/21 11:34:20;;;;;;;;;;;;;;;31.51;31.33;98432.75;5079451;28;19960;-88
2023/05/21 11:36:47;;;;;;;;;;;;;;;31.09;37.69;98435.47;5063467;28;19929;-86
2023/05/21 11:39:16;;;;;;;;;;;;;;;31.95;30.98;98430.28;5057853;28;20395;-88
2023/05/21 11:41:52;;;;;;;;;;;;;;;32.14;35.55;98428.94;5056027;28;19921;-87
2023/05/21 11:44:47;;;;;;;;;;;;;;;32.32;28.57;98417.47;5064260;28;19971;-88
2023/05/21 11:47:15;;;;;;;;;;;;;;;33.04;28.66;98421.13;5047832;28;20338;-88
2023/05/21 11:49:41;;;;;;;;;;;;;;;32.81;26.33;98417.00;5069525;28;19995;-87
2023/05/21 11:52:08;;;;;;;;;;;;;;;32.56;31.47;98423.97;5069308;28;19921;-88
2023/05/21 11:54:42;;;;;;;;;;;;;;;33.69;36.46;98417.16;5069541;28;19920;-90
2023/05/21 11:57:09;;;;;;;;;;;;;;;33.75;32.31;98413.13;5057466;28;19921;-89
2023/05/21 11:59:35;;;;;;;;;;;;;;;34.03;32.88;98413.59;5069406;28;19931;-91
2023/05/21 12:02:01;;;;;;;;;;;;;;;33.94;28.61;98413.69;5071976;28;19927;-90
2023/05/21 12:04:35;;;;;;;;;;;;;;;34.22;31.34;98405.56;5062667;28;19950;-92
2023/05/21 12:07:07;;;;;;;;;;;;;;;32.91;37.17;98412.81;5083133;28;19942;-90
2023/05/21 12:09:39;;;;;;;;;;;;;;;33.15;28.87;98404.25;5067474;28;19921;-88
2023/05/21 12:12:07;;;;;;;;;;;;;;;33.03;27.55;98397.56;5071009;28;20364;-87
2023/05/21 12:14:33;;;;;;;;;;;;;;;33.38;29.87;98395.63;5062221;28;19924;-88
2023/05/21 12:16:59;;;;;;;;;;;;;;;32.98;27.93;98406.72;5065256;28;19920;-88
2023/05/21 12:19:25;;;;;;;;;;;;;;;33.48;31.10;98393.47;5069415;28;19976;-87
2023/05/21 12:21:51;;;;;;;;;;;;;;;32.54;30.13;98414.34;5064622;28;19931;-88
2023/05/21 12:24:17;;;;;;;;;;;;;;;32.51;32.59;98410.41;5066041;28;19928;-86
2023/05/21 12:26:44;;;;;;;;;;;;;;;33.33;37.08;98393.47;5068661;28;19916;-86
2023/05/21 12:29:11;;;;;;;;;;;;;;;33.20;32.70;98398.66;5085164;28;19920;-88
2023/05/21 12:31:47;;;;;;;;;;;;;;;33.46;34.34;98398.09;5079425;28;19921;-88
2023/05/21 12:34:14;;;;;;;;;;;;;;;33.34;32.96;98395.03;5069073;28;20376;-88
2023/05/21 12:36:45;;;;;;;;;;;;;;;33.24;32.41;98402.09;5051677;28;19924;-87
2023/05/21 12:39:11;;;;;;;;;;;;;;;32.27;38.23;98400.28;5064705;28;20020;-88
2023/05/21 12:41:37;;;;;;;;;;;;;;;32.79;31.79;98396.81;5071942;28;20007;-88
2023/05/21 12:44:04;;;;;;;;;;;;;;;34.01;28.96;98388.41;5070763;28;19924;-87
2023/05/21 12:46:30;;;;;;;;;;;;;;;33.43;29.47;98392.09;5057802;28;19916;-88
2023/05/21 12:48:56;;;;;;;;;;;;;;;32.97;33.44;98390.97;5049018;28;19924;-90